createdAt,value
2019-04-22T00:04:56.104Z,10.23
2019-04-22T00:10:21.180Z,9.80
2019-04-22T00:15:24.767Z,9.80
2019-04-22T00:20:30.178Z,10.13
2019-04-22T00:25:46.018Z,10.63
2019-04-22T00:30:47.086Z,10.38
2019-04-22T00:35:54.526Z,9.98
2019-04-22T00:41:00.873Z,10.58
2019-04-22T00:46:12.920Z,11.35
2019-04-22T00:51:33.608Z,10.88
2019-04-22T00:56:22.095Z,11.70
2019-04-22T01:01:31.976Z,12.68
2019-04-22T01:06:41.367Z,13.13
2019-04-22T01:11:44.881Z,12.63
2019-04-22T01:16:57.829Z,13.08
2019-04-22T01:22:01.184Z,12.60
2019-04-22T01:26:58.254Z,13.58
2019-04-22T01:31:51.067Z,13.50
2019-04-22T01:37:13.773Z,14.20
2019-04-22T01:42:32.783Z,14.83
2019-04-22T01:47:36.733Z,14.85
2019-04-22T01:52:47.616Z,14.80
2019-04-22T01:57:47.640Z,14.85
2019-04-22T02:03:06.839Z,15.03
2019-04-22T02:08:14.606Z,15.43
2019-04-22T02:13:17.108Z,16.37
2019-04-22T02:18:23.191Z,16.10
2019-04-22T02:28:45.827Z,17.57
2019-04-22T02:34:09.351Z,16.97
2019-04-22T02:44:20.300Z,18.62
2019-04-22T02:59:39.836Z,19.02
2019-04-22T03:04:43.959Z,19.62
2019-04-22T03:15:01.472Z,19.73
2019-04-22T03:25:51.494Z,20.68
2019-04-22T03:30:51.088Z,20.52
2019-04-22T03:40:52.710Z,21.73
2019-04-22T03:45:58.833Z,21.93
2019-04-22T03:51:09.262Z,21.62
2019-04-22T03:56:28.628Z,23.73
2019-04-22T04:01:30.157Z,22.83
2019-04-22T04:06:32.030Z,23.35
2019-04-22T04:11:53.880Z,23.85
2019-04-22T04:17:02.371Z,23.67
2019-04-22T04:21:57.614Z,23.62
2019-04-22T04:27:26.456Z,24.10
2019-04-22T04:32:27.329Z,24.25
2019-04-22T04:52:50.834Z,25.37
2019-04-22T05:03:15.566Z,25.32
2019-04-22T05:08:04.413Z,25.90
2019-04-22T05:13:22.961Z,26.13
2019-04-22T05:18:12.605Z,26.30
2019-04-22T05:23:25.560Z,28.27
2019-04-22T05:28:23.906Z,27.90
2019-04-22T05:33:37.749Z,27.22
2019-04-22T05:38:50.130Z,26.60
2019-04-22T05:43:53.258Z,26.73
2019-04-22T05:54:01.319Z,27.73
2019-04-22T06:04:17.076Z,28.12
2019-04-22T06:09:24.838Z,28.23
2019-04-22T06:14:32.844Z,28.62
2019-04-22T06:19:38.006Z,29.50
2019-04-22T06:24:45.047Z,28.05
2019-04-22T06:29:46.169Z,28.57
2019-04-22T06:35:09.443Z,29.23
2019-04-22T06:40:10.961Z,27.45
2019-04-22T06:45:18.867Z,28.62
2019-04-22T06:50:27.749Z,27.37
2019-04-22T06:55:28.681Z,29.35
2019-04-22T07:00:36.678Z,27.50
2019-04-22T07:10:49.147Z,26.55
2019-04-22T07:16:13.328Z,29.45
2019-04-22T07:21:01.400Z,27.45
2019-04-22T07:26:08.874Z,27.48
2019-04-22T07:31:16.167Z,32.40
2019-04-22T07:41:32.862Z,27.25
2019-04-22T07:46:47.130Z,26.82
2019-04-22T07:51:44.472Z,27.10
2019-04-22T07:56:54.908Z,29.87
2019-04-22T08:02:05.974Z,25.80
2019-04-22T08:07:12.633Z,26.12
2019-04-22T08:12:18.746Z,25.17
2019-04-22T08:22:39.898Z,25.55
2019-04-22T08:27:47.137Z,25.50
2019-04-22T08:32:48.894Z,25.48
2019-04-22T08:37:58.918Z,30.95
2019-04-22T08:43:10.332Z,24.72
2019-04-22T08:48:07.555Z,25.20
2019-04-22T08:53:14.575Z,28.50
2019-04-22T09:03:30.369Z,23.30
2019-04-22T09:08:45.597Z,21.73
2019-04-22T09:13:50.650Z,21.93
2019-04-22T09:18:56.158Z,22.20
2019-04-22T09:29:06.626Z,19.65
2019-04-22T09:34:14.027Z,18.62
2019-04-22T09:39:23.043Z,19.73
2019-04-22T09:44:32.717Z,19.87
2019-04-22T09:49:36.884Z,20.27
2019-04-22T09:54:49.519Z,19.77
2019-04-22T09:59:54.156Z,21.07
2019-04-22T10:04:54.058Z,21.00
2019-04-22T10:10:09.013Z,19.67
2019-04-22T10:15:19.533Z,21.48
2019-04-22T10:20:15.097Z,19.15
2019-04-22T10:25:16.745Z,18.17
2019-04-22T10:30:33.586Z,19.42
2019-04-22T10:35:17.232Z,17.92
2019-04-22T10:40:27.969Z,17.70
2019-04-22T10:45:34.471Z,16.77
2019-04-22T10:50:48.765Z,17.50
2019-04-22T10:55:54.382Z,17.65
2019-04-22T11:01:00.629Z,17.55
2019-04-22T11:06:07.331Z,17.20
2019-04-22T11:11:26.226Z,15.88
2019-04-22T11:16:19.487Z,17.62
2019-04-22T11:21:25.763Z,18.40
2019-04-22T11:26:31.916Z,15.98
2019-04-22T11:31:37.077Z,16.42
2019-04-22T11:36:43.095Z,16.90
2019-04-22T11:41:49.845Z,15.13
2019-04-22T11:46:54.798Z,15.93
2019-04-22T11:52:04.761Z,14.90
2019-04-22T11:57:08.776Z,13.30
2019-04-22T12:02:16.132Z,11.65
2019-04-22T12:07:21.300Z,9.78
2019-04-22T12:12:27.832Z,8.83
2019-04-22T12:17:33.877Z,8.43
2019-04-22T12:22:40.951Z,9.05
2019-04-22T12:27:47.291Z,8.23
2019-04-22T12:32:52.722Z,5.65
2019-04-22T12:38:02.654Z,5.00
2019-04-22T12:43:06.685Z,5.28
2019-04-22T12:48:12.829Z,5.70
2019-04-22T12:53:21.675Z,6.22
2019-04-22T12:58:25.545Z,6.45
2019-04-22T13:03:32.014Z,6.22
2019-04-22T13:08:38.144Z,5.80
2019-04-22T13:13:45.295Z,5.33
2019-04-22T13:18:56.512Z,6.00
2019-04-22T13:23:57.458Z,5.40
2019-04-22T13:29:03.214Z,5.87
2019-04-22T13:34:11.758Z,5.95
2019-04-22T13:39:16.714Z,5.20
2019-04-22T13:44:23.019Z,5.60
2019-04-22T13:50:17.836Z,5.62
2019-04-22T13:54:59.623Z,5.30
2019-04-22T13:59:48.131Z,5.28
2019-04-22T14:04:50.520Z,5.33
2019-04-22T14:09:56.104Z,5.30
2019-04-22T14:15:04.303Z,7.25
2019-04-22T14:20:10.906Z,7.65
2019-04-22T14:25:18.681Z,8.10
2019-04-22T14:30:26.253Z,8.00
2019-04-22T14:35:31.884Z,7.90
2019-04-22T14:40:38.584Z,8.90
2019-04-22T14:46:17.754Z,9.03
2019-04-22T14:51:14.837Z,9.08
2019-04-22T14:56:00.178Z,8.50
2019-04-22T15:01:06.818Z,8.15
2019-04-22T15:06:12.582Z,7.83
2019-04-22T15:11:19.343Z,7.70
2019-04-22T15:16:46.938Z,7.90
2019-04-22T15:21:52.580Z,6.65
2019-04-22T15:27:00.550Z,6.90
2019-04-22T15:32:07.578Z,6.72
2019-04-22T15:37:13.858Z,6.35
2019-04-22T15:42:25.732Z,6.15
2019-04-22T15:47:27.358Z,5.92
2019-04-22T15:52:41.689Z,5.45
2019-04-22T15:57:39.857Z,5.37
2019-04-22T16:02:47.687Z,5.55
2019-04-22T16:07:53.082Z,5.60
2019-04-22T16:13:07.452Z,5.20
2019-04-22T16:18:06.813Z,5.03
2019-04-22T16:23:23.636Z,5.22
2019-04-22T16:28:27.036Z,5.08
2019-04-22T16:33:36.009Z,5.25
2019-04-22T16:38:40.616Z,5.05
2019-04-22T16:43:46.955Z,5.20
2019-04-22T16:48:53.705Z,4.45
2019-04-22T16:53:59.995Z,5.08
2019-04-22T16:59:06.644Z,5.40
2019-04-22T17:04:48.618Z,6.05
2019-04-22T17:09:57.652Z,4.95
2019-04-22T17:15:08.064Z,4.75
2019-04-22T17:20:11.212Z,5.08
2019-04-22T17:25:18.151Z,5.17
2019-04-22T17:30:24.369Z,4.80
2019-04-22T17:35:30.128Z,4.60
2019-04-22T17:40:51.033Z,4.62
2019-04-22T17:46:15.075Z,4.47
2019-04-22T17:51:31.504Z,4.53
2019-04-22T17:56:37.495Z,4.15
2019-04-22T18:01:38.273Z,4.05
2019-04-22T18:06:55.198Z,4.42
2019-04-22T18:12:01.087Z,4.05
2019-04-22T18:17:07.080Z,3.95
2019-04-22T18:22:02.568Z,4.20
2019-04-22T18:27:30.433Z,3.75
2019-04-22T18:32:15.414Z,3.80
2019-04-22T18:37:26.613Z,3.52
2019-04-22T18:42:31.642Z,3.47
2019-04-22T18:47:38.775Z,3.70
2019-04-22T18:53:03.662Z,3.42
2019-04-22T18:58:05.404Z,3.40
2019-04-22T19:03:05.335Z,3.10
2019-04-22T19:08:36.671Z,2.90
2019-04-22T19:18:41.861Z,2.90
2019-04-22T19:23:44.926Z,3.22
2019-04-22T19:28:57.230Z,2.80
2019-04-22T19:33:57.623Z,3.17
2019-04-22T19:38:59.017Z,2.77
2019-04-22T19:44:17.675Z,2.62
2019-04-22T19:49:29.132Z,2.80
2019-04-22T19:54:26.178Z,2.98
2019-04-22T19:59:32.282Z,2.87
2019-04-22T20:05:04.362Z,2.58
2019-04-22T20:09:57.376Z,2.47
2019-04-22T20:15:06.634Z,4.37
2019-04-22T20:20:17.444Z,2.50
2019-04-22T20:25:08.657Z,2.02
2019-04-22T20:30:29.285Z,2.70
2019-04-22T20:35:41.859Z,2.20
2019-04-22T20:40:39.845Z,2.60
2019-04-22T20:45:51.172Z,2.20
2019-04-22T20:51:00.424Z,2.62
2019-04-22T20:56:08.408Z,2.62
2019-04-22T21:01:05.260Z,2.20
2019-04-22T21:06:16.473Z,2.27
2019-04-22T21:11:24.885Z,1.95
2019-04-22T21:16:32.863Z,2.27
2019-04-22T21:21:46.690Z,2.20
2019-04-22T21:26:43.803Z,2.27
2019-04-22T21:31:57.865Z,2.33
2019-04-22T21:37:10.483Z,2.35
2019-04-22T21:42:14.347Z,1.90
2019-04-22T21:47:22.403Z,2.42
2019-04-22T21:52:28.218Z,2.30
2019-04-22T21:58:00.435Z,1.92
2019-04-22T22:03:06.966Z,2.20
2019-04-22T22:07:56.061Z,2.27
2019-04-22T22:13:11.195Z,2.10
2019-04-22T22:18:12.926Z,2.25
2019-04-22T22:23:31.538Z,2.30
2019-04-22T22:33:42.262Z,3.87
2019-04-22T22:38:41.923Z,1.98
2019-04-22T22:43:38.791Z,2.10
2019-04-22T22:49:05.335Z,1.95
2019-04-22T22:54:14.739Z,2.22
2019-04-22T22:59:18.108Z,2.25
2019-04-22T23:04:23.130Z,2.00
2019-04-22T23:09:28.924Z,2.12
2019-04-22T23:14:37.182Z,2.15
2019-04-22T23:19:26.067Z,1.95
2019-04-22T23:24:58.521Z,1.92
2019-04-22T23:30:03.437Z,1.90
2019-04-22T23:35:23.108Z,1.67
2019-04-22T23:40:34.335Z,2.10
2019-04-22T23:45:40.304Z,1.85
2019-04-22T23:50:50.959Z,2.12
2019-04-22T23:55:54.325Z,1.80
